sensor_id;sensor_type;location;lat;lon;timestamp;pressure;altitude;pressure_sealevel;temperature;humidity
62600;BME280;48671;48.922;2.346;2023-07-02T00:01:02;101042.50;;;23.41;42.59
62600;BME280;48671;48.922;2.346;2023-07-02T00:03:27;101037.19;;;23.41;42.94
62600;BME280;48671;48.922;2.346;2023-07-02T00:05:52;101046.03;;;23.42;43.01
62600;BME280;48671;48.922;2.346;2023-07-02T00:08:20;101050.31;;;23.33;43.22
62600;BME280;48671;48.922;2.346;2023-07-02T00:10:45;101043.72;;;23.27;43.87
62600;BME280;48671;48.922;2.346;2023-07-02T00:13:10;101043.41;;;23.21;43.51
62600;BME280;48671;48.922;2.346;2023-07-02T00:15:36;101045.75;;;23.14;43.54
62600;BME280;48671;48.922;2.346;2023-07-02T00:18:01;101040.66;;;23.01;43.56
62600;BME280;48671;48.922;2.346;2023-07-02T00:20:26;101043.56;;;22.98;43.70
62600;BME280;48671;48.922;2.346;2023-07-02T00:22:52;101029.97;;;22.91;44.18
62600;BME280;48671;48.922;2.346;2023-07-02T00:25:19;101033.09;;;22.97;43.60
62600;BME280;48671;48.922;2.346;2023-07-02T00:27:45;101042.47;;;23.01;43.92
62600;BME280;48671;48.922;2.346;2023-07-02T00:30:11;101035.03;;;22.95;44.71
62600;BME280;48671;48.922;2.346;2023-07-02T00:32:36;101033.84;;;22.87;44.25
62600;BME280;48671;48.922;2.346;2023-07-02T00:35:01;101035.78;;;22.85;44.41
62600;BME280;48671;48.922;2.346;2023-07-02T00:37:27;101039.44;;;22.84;44.26
62600;BME280;48671;48.922;2.346;2023-07-02T00:39:52;101039.94;;;22.78;44.76
62600;BME280;48671;48.922;2.346;2023-07-02T00:42:17;101033.69;;;22.79;44.75
62600;BME280;48671;48.922;2.346;2023-07-02T00:44:43;101027.19;;;22.72;44.59
62600;BME280;48671;48.922;2.346;2023-07-02T00:47:09;101024.38;;;22.64;45.14
62600;BME280;48671;48.922;2.346;2023-07-02T00:49:35;101029.34;;;22.57;44.88
62600;BME280;48671;48.922;2.346;2023-07-02T00:52:00;101031.84;;;22.59;45.25
62600;BME280;48671;48.922;2.346;2023-07-02T00:54:30;101041.25;;;22.63;45.37
62600;BME280;48671;48.922;2.346;2023-07-02T00:56:56;101034.66;;;22.57;44.81
62600;BME280;48671;48.922;2.346;2023-07-02T00:59:21;101035.03;;;22.53;45.13
62600;BME280;48671;48.922;2.346;2023-07-02T01:01:47;101025.41;;;22.52;45.56
62600;BME280;48671;48.922;2.346;2023-07-02T01:04:17;101029.13;;;22.49;45.40
62600;BME280;48671;48.922;2.346;2023-07-02T01:06:43;101031.44;;;22.54;45.75
62600;BME280;48671;48.922;2.346;2023-07-02T01:09:09;101038.06;;;22.48;45.48
62600;BME280;48671;48.922;2.346;2023-07-02T01:11:53;101052.31;;;22.47;45.28
62600;BME280;48671;48.922;2.346;2023-07-02T01:14:26;101036.66;;;22.44;45.44
62600;BME280;48671;48.922;2.346;2023-07-02T01:16:53;101041.50;;;22.39;45.80
62600;BME280;48671;48.922;2.346;2023-07-02T01:19:55;101051.56;;;22.24;46.04
62600;BME280;48671;48.922;2.346;2023-07-02T01:22:25;101051.09;;;22.19;45.63
62600;BME280;48671;48.922;2.346;2023-07-02T01:24:51;101048.19;;;22.22;46.44
62600;BME280;48671;48.922;2.346;2023-07-02T01:27:17;101052.91;;;22.18;46.55
62600;BME280;48671;48.922;2.346;2023-07-02T01:29:43;101046.06;;;22.05;46.65
62600;BME280;48671;48.922;2.346;2023-07-02T01:32:12;101052.44;;;22.02;47.11
62600;BME280;48671;48.922;2.346;2023-07-02T01:34:38;101059.81;;;21.98;47.55
62600;BME280;48671;48.922;2.346;2023-07-02T01:37:04;101069.09;;;21.93;47.01
62600;BME280;48671;48.922;2.346;2023-07-02T01:39:30;101067.66;;;21.89;47.57
62600;BME280;48671;48.922;2.346;2023-07-02T01:42:07;101065.84;;;21.89;47.62
62600;BME280;48671;48.922;2.346;2023-07-02T01:44:33;101064.88;;;21.90;47.33
62600;BME280;48671;48.922;2.346;2023-07-02T01:46:59;101055.25;;;21.89;47.21
62600;BME280;48671;48.922;2.346;2023-07-02T01:49:24;101062.94;;;21.92;47.66
62600;BME280;48671;48.922;2.346;2023-07-02T01:51:54;101065.00;;;21.89;47.77
62600;BME280;48671;48.922;2.346;2023-07-02T01:54:21;101061.44;;;21.79;47.43
62600;BME280;48671;48.922;2.346;2023-07-02T01:56:46;101058.78;;;21.79;48.01
62600;BME280;48671;48.922;2.346;2023-07-02T01:59:12;101060.69;;;21.77;47.27
62600;BME280;48671;48.922;2.346;2023-07-02T02:01:38;101058.19;;;21.75;47.80
62600;BME280;48671;48.922;2.346;2023-07-02T02:04:07;101060.84;;;21.75;47.82
62600;BME280;48671;48.922;2.346;2023-07-02T02:06:33;101061.19;;;21.70;47.95
62600;BME280;48671;48.922;2.346;2023-07-02T02:08:59;101063.72;;;21.61;48.48
62600;BME280;48671;48.922;2.346;2023-07-02T02:11:24;101060.25;;;21.60;48.23
62600;BME280;48671;48.922;2.346;2023-07-02T02:13:50;101052.88;;;21.64;48.49
62600;BME280;48671;48.922;2.346;2023-07-02T02:16:15;101054.47;;;21.66;49.02
62600;BME280;48671;48.922;2.346;2023-07-02T02:18:40;101050.72;;;21.58;49.40
62600;BME280;48671;48.922;2.346;2023-07-02T02:21:06;101056.41;;;21.53;48.98
62600;BME280;48671;48.922;2.346;2023-07-02T02:23:31;101045.84;;;21.42;49.17
62600;BME280;48671;48.922;2.346;2023-07-02T02:25:57;101057.72;;;21.47;49.27
62600;BME280;48671;48.922;2.346;2023-07-02T02:28:22;101064.59;;;21.50;49.62
62600;BME280;48671;48.922;2.346;2023-07-02T02:30:47;101066.63;;;21.58;48.84
62600;BME280;48671;48.922;2.346;2023-07-02T02:33:13;101067.47;;;21.58;48.64
62600;BME280;48671;48.922;2.346;2023-07-02T02:35:38;101065.91;;;21.56;48.96
62600;BME280;48671;48.922;2.346;2023-07-02T02:38:03;101058.31;;;21.51;49.17
62600;BME280;48671;48.922;2.346;2023-07-02T02:40:30;101060.72;;;21.54;48.92
62600;BME280;48671;48.922;2.346;2023-07-02T02:42:55;101068.44;;;21.46;49.10
62600;BME280;48671;48.922;2.346;2023-07-02T02:45:21;101059.06;;;21.42;49.42
62600;BME280;48671;48.922;2.346;2023-07-02T02:47:46;101061.81;;;21.40;49.10
62600;BME280;48671;48.922;2.346;2023-07-02T02:50:12;101066.53;;;21.37;49.09
62600;BME280;48671;48.922;2.346;2023-07-02T02:52:38;101062.28;;;21.34;49.60
62600;BME280;48671;48.922;2.346;2023-07-02T02:55:05;101055.78;;;21.27;49.79
62600;BME280;48671;48.922;2.346;2023-07-02T02:57:31;101063.22;;;21.22;49.87
62600;BME280;48671;48.922;2.346;2023-07-02T02:59:56;101074.78;;;21.21;50.27
62600;BME280;48671;48.922;2.346;2023-07-02T03:02:22;101069.47;;;21.21;50.14
62600;BME280;48671;48.922;2.346;2023-07-02T03:04:47;101065.16;;;21.20;49.63
62600;BME280;48671;48.922;2.346;2023-07-02T03:07:14;101066.22;;;21.17;50.01
62600;BME280;48671;48.922;2.346;2023-07-02T03:09:40;101067.31;;;21.15;50.22
62600;BME280;48671;48.922;2.346;2023-07-02T03:12:05;101076.59;;;21.09;50.80
62600;BME280;48671;48.922;2.346;2023-07-02T03:14:31;101065.75;;;21.01;51.59
62600;BME280;48671;48.922;2.346;2023-07-02T03:16:56;101070.56;;;21.07;50.02
62600;BME280;48671;48.922;2.346;2023-07-02T03:19:22;101072.13;;;21.10;50.76
62600;BME280;48671;48.922;2.346;2023-07-02T03:21:47;101068.38;;;21.01;50.84
62600;BME280;48671;48.922;2.346;2023-07-02T03:24:12;101070.28;;;20.99;51.17
62600;BME280;48671;48.922;2.346;2023-07-02T03:26:39;101071.03;;;21.01;50.51
62600;BME280;48671;48.922;2.346;2023-07-02T03:29:06;101083.41;;;21.00;50.51
62600;BME280;48671;48.922;2.346;2023-07-02T03:31:31;101088.28;;;20.83;50.73
62600;BME280;48671;48.922;2.346;2023-07-02T03:33:57;101089.03;;;20.85;51.30
62600;BME280;48671;48.922;2.346;2023-07-02T03:36:22;101091.06;;;20.81;51.06
62600;BME280;48671;48.922;2.346;2023-07-02T03:38:47;101085.56;;;20.84;51.26
62600;BME280;48671;48.922;2.346;2023-07-02T03:41:12;101090.72;;;20.86;50.99
62600;BME280;48671;48.922;2.346;2023-07-02T03:43:38;101103.38;;;20.93;50.81
62600;BME280;48671;48.922;2.346;2023-07-02T03:46:03;101099.00;;;20.92;50.99
62600;BME280;48671;48.922;2.346;2023-07-02T03:48:29;101101.50;;;20.83;51.87
62600;BME280;48671;48.922;2.346;2023-07-02T03:50:54;101104.38;;;20.79;51.36
62600;BME280;48671;48.922;2.346;2023-07-02T03:53:19;101115.09;;;20.78;51.07
62600;BME280;48671;48.922;2.346;2023-07-02T03:55:45;101114.72;;;20.71;51.35
62600;BME280;48671;48.922;2.346;2023-07-02T03:58:10;101125.66;;;20.67;52.06
62600;BME280;48671;48.922;2.346;2023-07-02T04:00:35;101127.56;;;20.65;51.48
62600;BME280;48671;48.922;2.346;2023-07-02T04:03:01;101123.00;;;20.67;52.04
62600;BME280;48671;48.922;2.346;2023-07-02T04:05:27;101120.59;;;20.64;52.03
62600;BME280;48671;48.922;2.346;2023-07-02T04:07:52;101121.53;;;20.63;51.85
62600;BME280;48671;48.922;2.346;2023-07-02T04:10:17;101122.03;;;20.68;52.38
62600;BME280;48671;48.922;2.346;2023-07-02T04:12:42;101116.00;;;20.66;52.17
62600;BME280;48671;48.922;2.346;2023-07-02T04:15:08;101127.19;;;20.69;52.19
62600;BME280;48671;48.922;2.346;2023-07-02T04:17:34;101128.28;;;20.67;52.00
62600;BME280;48671;48.922;2.346;2023-07-02T04:20:00;101123.63;;;20.70;52.25
62600;BME280;48671;48.922;2.346;2023-07-02T04:22:25;101129.00;;;20.69;51.96
62600;BME280;48671;48.922;2.346;2023-07-02T04:24:50;101126.03;;;20.73;51.95
62600;BME280;48671;48.922;2.346;2023-07-02T04:27:16;101131.81;;;20.78;52.17
62600;BME280;48671;48.922;2.346;2023-07-02T04:29:44;101140.13;;;20.85;51.84
62600;BME280;48671;48.922;2.346;2023-07-02T04:32:10;101138.78;;;20.79;52.10
62600;BME280;48671;48.922;2.346;2023-07-02T04:34:35;101140.47;;;20.80;51.82
62600;BME280;48671;48.922;2.346;2023-07-02T04:37:03;101143.97;;;20.81;52.09
62600;BME280;48671;48.922;2.346;2023-07-02T04:39:28;101143.00;;;20.82;51.85
62600;BME280;48671;48.922;2.346;2023-07-02T04:41:54;101138.31;;;20.86;51.79
62600;BME280;48671;48.922;2.346;2023-07-02T04:44:19;101138.31;;;20.86;52.42
62600;BME280;48671;48.922;2.346;2023-07-02T04:46:47;101147.97;;;20.87;51.74
62600;BME280;48671;48.922;2.346;2023-07-02T04:49:12;101151.31;;;20.89;51.91
62600;BME280;48671;48.922;2.346;2023-07-02T04:51:37;101141.63;;;21.00;52.01
62600;BME280;48671;48.922;2.346;2023-07-02T04:54:03;101147.50;;;21.04;51.87
62600;BME280;48671;48.922;2.346;2023-07-02T04:56:28;101140.19;;;21.08;51.75
62600;BME280;48671;48.922;2.346;2023-07-02T04:58:53;101138.16;;;21.11;52.10
62600;BME280;48671;48.922;2.346;2023-07-02T05:01:19;101139.81;;;21.12;51.71
62600;BME280;48671;48.922;2.346;2023-07-02T05:03:44;101142.84;;;21.08;51.61
62600;BME280;48671;48.922;2.346;2023-07-02T05:06:09;101139.22;;;21.09;51.60
62600;BME280;48671;48.922;2.346;2023-07-02T05:08:35;101144.13;;;21.02;51.93
62600;BME280;48671;48.922;2.346;2023-07-02T05:11:01;101134.00;;;20.96;51.78
62600;BME280;48671;48.922;2.346;2023-07-02T05:13:26;101140.63;;;20.90;51.86
62600;BME280;48671;48.922;2.346;2023-07-02T05:15:52;101144.94;;;20.91;52.04
62600;BME280;48671;48.922;2.346;2023-07-02T05:18:17;101152.44;;;20.97;52.41
62600;BME280;48671;48.922;2.346;2023-07-02T05:20:42;101143.97;;;20.92;51.98
62600;BME280;48671;48.922;2.346;2023-07-02T05:23:08;101143.59;;;20.86;52.23
62600;BME280;48671;48.922;2.346;2023-07-02T05:25:33;101150.25;;;21.02;51.93
62600;BME280;48671;48.922;2.346;2023-07-02T05:27:59;101150.66;;;21.09;52.00
62600;BME280;48671;48.922;2.346;2023-07-02T05:30:24;101142.38;;;21.14;51.21
62600;BME280;48671;48.922;2.346;2023-07-02T05:32:49;101151.22;;;21.01;51.94
62600;BME280;48671;48.922;2.346;2023-07-02T05:35:15;101153.31;;;21.09;52.08
62600;BME280;48671;48.922;2.346;2023-07-02T05:37:40;101163.31;;;21.17;51.76
62600;BME280;48671;48.922;2.346;2023-07-02T05:40:06;101149.94;;;21.18;51.61
62600;BME280;48671;48.922;2.346;2023-07-02T05:42:31;101162.22;;;21.19;51.91
62600;BME280;48671;48.922;2.346;2023-07-02T05:44:56;101149.47;;;21.13;51.99
62600;BME280;48671;48.922;2.346;2023-07-02T05:47:22;101162.94;;;21.21;52.25
62600;BME280;48671;48.922;2.346;2023-07-02T05:49:47;101164.00;;;21.19;51.90
62600;BME280;48671;48.922;2.346;2023-07-02T05:52:12;101168.75;;;21.26;52.03
62600;BME280;48671;48.922;2.346;2023-07-02T05:54:41;101168.28;;;21.33;51.80
62600;BME280;48671;48.922;2.346;2023-07-02T05:57:06;101179.25;;;21.39;51.59
62600;BME280;48671;48.922;2.346;2023-07-02T05:59:31;101179.16;;;21.52;51.34
62600;BME280;48671;48.922;2.346;2023-07-02T06:01:57;101174.22;;;21.59;51.25
62600;BME280;48671;48.922;2.346;2023-07-02T06:04:22;101173.63;;;21.55;51.02
62600;BME280;48671;48.922;2.346;2023-07-02T06:06:47;101178.94;;;21.55;51.21
62600;BME280;48671;48.922;2.346;2023-07-02T06:09:12;101167.22;;;21.46;51.35
62600;BME280;48671;48.922;2.346;2023-07-02T06:11:38;101179.63;;;21.46;51.76
62600;BME280;48671;48.922;2.346;2023-07-02T06:14:03;101174.34;;;21.46;51.60
62600;BME280;48671;48.922;2.346;2023-07-02T06:16:28;101180.56;;;21.45;51.32
62600;BME280;48671;48.922;2.346;2023-07-02T06:18:54;101183.50;;;21.42;51.46
62600;BME280;48671;48.922;2.346;2023-07-02T06:21:19;101180.47;;;21.46;51.53
62600;BME280;48671;48.922;2.346;2023-07-02T06:23:46;101195.41;;;21.59;51.86
62600;BME280;48671;48.922;2.346;2023-07-02T06:26:11;101195.88;;;21.64;51.40
62600;BME280;48671;48.922;2.346;2023-07-02T06:28:38;101196.25;;;21.70;50.90
62600;BME280;48671;48.922;2.346;2023-07-02T06:31:04;101191.66;;;21.61;50.91
62600;BME280;48671;48.922;2.346;2023-07-02T06:33:29;101192.41;;;21.63;51.67
62600;BME280;48671;48.922;2.346;2023-07-02T06:35:54;101193.75;;;21.69;51.41
62600;BME280;48671;48.922;2.346;2023-07-02T06:38:19;101199.25;;;21.77;51.57
62600;BME280;48671;48.922;2.346;2023-07-02T06:40:45;101211.19;;;21.94;51.01
62600;BME280;48671;48.922;2.346;2023-07-02T06:43:10;101206.25;;;21.89;50.67
62600;BME280;48671;48.922;2.346;2023-07-02T06:45:35;101206.38;;;21.77;50.90
62600;BME280;48671;48.922;2.346;2023-07-02T06:48:01;101208.19;;;21.76;51.97
62600;BME280;48671;48.922;2.346;2023-07-02T06:50:26;101214.56;;;21.85;50.98
62600;BME280;48671;48.922;2.346;2023-07-02T06:52:51;101220.72;;;21.85;50.84
62600;BME280;48671;48.922;2.346;2023-07-02T06:55:17;101216.13;;;21.76;51.33
62600;BME280;48671;48.922;2.346;2023-07-02T06:57:45;101207.44;;;21.74;51.67
62600;BME280;48671;48.922;2.346;2023-07-02T07:00:13;101224.31;;;21.73;51.29
62600;BME280;48671;48.922;2.346;2023-07-02T07:02:38;101220.31;;;21.67;51.33
62600;BME280;48671;48.922;2.346;2023-07-02T07:05:04;101219.47;;;21.67;51.52
62600;BME280;48671;48.922;2.346;2023-07-02T07:07:29;101230.72;;;21.82;51.84
62600;BME280;48671;48.922;2.346;2023-07-02T07:09:55;101219.63;;;21.88;51.20
62600;BME280;48671;48.922;2.346;2023-07-02T07:12:20;101220.22;;;21.91;51.20
62600;BME280;48671;48.922;2.346;2023-07-02T07:14:46;101226.38;;;21.92;51.23
62600;BME280;48671;48.922;2.346;2023-07-02T07:17:11;101223.59;;;22.05;50.67
62600;BME280;48671;48.922;2.346;2023-07-02T07:19:36;101224.34;;;22.18;50.39
62600;BME280;48671;48.922;2.346;2023-07-02T07:22:02;101227.47;;;22.34;50.71
62600;BME280;48671;48.922;2.346;2023-07-02T07:24:27;101227.91;;;22.51;50.34
62600;BME280;48671;48.922;2.346;2023-07-02T07:26:52;101232.03;;;22.76;50.05
62600;BME280;48671;48.922;2.346;2023-07-02T07:29:18;101223.44;;;22.95;49.34
62600;BME280;48671;48.922;2.346;2023-07-02T07:31:43;101226.84;;;23.18;49.05
62600;BME280;48671;48.922;2.346;2023-07-02T07:34:09;101220.34;;;23.31;48.85
62600;BME280;48671;48.922;2.346;2023-07-02T07:36:34;101227.88;;;23.47;47.80
62600;BME280;48671;48.922;2.346;2023-07-02T07:39:00;101230.16;;;23.52;47.97
62600;BME280;48671;48.922;2.346;2023-07-02T07:41:25;101213.28;;;23.63;47.68
62600;BME280;48671;48.922;2.346;2023-07-02T07:43:50;101224.84;;;23.73;47.23
62600;BME280;48671;48.922;2.346;2023-07-02T07:46:15;101218.19;;;23.67;47.37
62600;BME280;48671;48.922;2.346;2023-07-02T07:48:41;101222.31;;;23.71;47.59
62600;BME280;48671;48.922;2.346;2023-07-02T07:51:06;101222.78;;;23.86;47.13
62600;BME280;48671;48.922;2.346;2023-07-02T07:53:31;101227.41;;;23.84;46.62
62600;BME280;48671;48.922;2.346;2023-07-02T07:55:57;101234.03;;;23.69;46.41
62600;BME280;48671;48.922;2.346;2023-07-02T07:58:23;101249.19;;;23.57;46.72
62600;BME280;48671;48.922;2.346;2023-07-02T08:00:49;101241.53;;;23.64;46.96
62600;BME280;48671;48.922;2.346;2023-07-02T08:03:14;101231.25;;;23.70;46.48
62600;BME280;48671;48.922;2.346;2023-07-02T08:05:40;101227.91;;;23.68;46.61
62600;BME280;48671;48.922;2.346;2023-07-02T08:08:05;101237.00;;;23.75;46.41
62600;BME280;48671;48.922;2.346;2023-07-02T08:10:30;101236.03;;;23.76;46.13
62600;BME280;48671;48.922;2.346;2023-07-02T08:12:55;101242.84;;;23.69;46.41
62600;BME280;48671;48.922;2.346;2023-07-02T08:15:22;101242.66;;;23.82;46.72
62600;BME280;48671;48.922;2.346;2023-07-02T08:17:47;101238.09;;;23.94;45.69
62600;BME280;48671;48.922;2.346;2023-07-02T08:20:12;101239.75;;;23.95;45.79
62600;BME280;48671;48.922;2.346;2023-07-02T08:22:38;101237.25;;;24.03;45.56
62600;BME280;48671;48.922;2.346;2023-07-02T08:25:05;101241.91;;;24.01;45.29
62600;BME280;48671;48.922;2.346;2023-07-02T08:27:30;101246.94;;;24.04;45.28
62600;BME280;48671;48.922;2.346;2023-07-02T08:29:56;101247.09;;;24.12;45.37
62600;BME280;48671;48.922;2.346;2023-07-02T08:32:21;101246.72;;;24.17;45.58
62600;BME280;48671;48.922;2.346;2023-07-02T08:34:46;101247.09;;;24.12;45.15
62600;BME280;48671;48.922;2.346;2023-07-02T08:37:11;101246.69;;;24.07;45.03
62600;BME280;48671;48.922;2.346;2023-07-02T08:39:37;101253.72;;;24.18;44.93
62600;BME280;48671;48.922;2.346;2023-07-02T08:42:05;101256.25;;;24.29;44.69
62600;BME280;48671;48.922;2.346;2023-07-02T08:44:30;101254.50;;;24.49;44.34
62600;BME280;48671;48.922;2.346;2023-07-02T08:46:55;101252.28;;;24.54;43.47
62600;BME280;48671;48.922;2.346;2023-07-02T08:49:22;101256.50;;;24.57;43.67
62600;BME280;48671;48.922;2.346;2023-07-02T08:51:48;101256.25;;;24.69;43.75
62600;BME280;48671;48.922;2.346;2023-07-02T08:54:14;101260.16;;;24.65;42.54
62600;BME280;48671;48.922;2.346;2023-07-02T08:56:40;101256.81;;;24.73;43.03
62600;BME280;48671;48.922;2.346;2023-07-02T08:59:09;101247.84;;;24.93;41.98
62600;BME280;48671;48.922;2.346;2023-07-02T09:01:47;101254.84;;;25.04;41.97
62600;BME280;48671;48.922;2.346;2023-07-02T09:04:23;101251.09;;;25.16;41.54
62600;BME280;48671;48.922;2.346;2023-07-02T09:06:51;101252.66;;;25.19;41.36
62600;BME280;48671;48.922;2.346;2023-07-02T09:09:16;101252.38;;;25.12;40.48
62600;BME280;48671;48.922;2.346;2023-07-02T09:11:51;101239.59;;;25.26;41.03
62600;BME280;48671;48.922;2.346;2023-07-02T09:14:30;101243.63;;;25.49;39.80
62600;BME280;48671;48.922;2.346;2023-07-02T09:17:03;101236.44;;;25.69;39.27
62600;BME280;48671;48.922;2.346;2023-07-02T09:19:29;101235.69;;;25.77;38.30
62600;BME280;48671;48.922;2.346;2023-07-02T09:21:57;101237.41;;;25.68;37.84
62600;BME280;48671;48.922;2.346;2023-07-02T09:24:24;101238.72;;;25.54;39.07
62600;BME280;48671;48.922;2.346;2023-07-02T09:29:28;101231.84;;;25.52;38.52
62600;BME280;48671;48.922;2.346;2023-07-02T09:31:58;101243.78;;;25.48;38.80
62600;BME280;48671;48.922;2.346;2023-07-02T09:34:28;101232.72;;;25.42;39.45
62600;BME280;48671;48.922;2.346;2023-07-02T09:36:54;101236.22;;;25.43;38.92
62600;BME280;48671;48.922;2.346;2023-07-02T09:39:25;101240.16;;;25.29;39.40
62600;BME280;48671;48.922;2.346;2023-07-02T09:41:51;101243.38;;;25.33;39.85
62600;BME280;48671;48.922;2.346;2023-07-02T09:44:18;101235.81;;;25.38;39.38
62600;BME280;48671;48.922;2.346;2023-07-02T09:46:58;101241.44;;;25.35;39.64
62600;BME280;48671;48.922;2.346;2023-07-02T09:49:26;101241.84;;;25.20;39.51
62600;BME280;48671;48.922;2.346;2023-07-02T09:51:52;101242.28;;;25.26;39.70
62600;BME280;48671;48.922;2.346;2023-07-02T09:54:18;101246.59;;;25.36;38.66
62600;BME280;48671;48.922;2.346;2023-07-02T09:56:46;101246.47;;;25.38;38.47
62600;BME280;48671;48.922;2.346;2023-07-02T09:59:12;101246.75;;;25.35;39.25
62600;BME280;48671;48.922;2.346;2023-07-02T10:01:38;101239.72;;;25.34;38.86
62600;BME280;48671;48.922;2.346;2023-07-02T10:04:13;101234.66;;;25.40;38.90
62600;BME280;48671;48.922;2.346;2023-07-02T10:06:49;101236.34;;;25.51;38.12
62600;BME280;48671;48.922;2.346;2023-07-02T10:09:21;101237.00;;;25.63;38.25
62600;BME280;48671;48.922;2.346;2023-07-02T10:11:47;101239.47;;;25.94;38.52
62600;BME280;48671;48.922;2.346;2023-07-02T10:14:13;101235.34;;;25.99;37.15
62600;BME280;48671;48.922;2.346;2023-07-02T10:16:52;101242.44;;;25.90;37.35
62600;BME280;48671;48.922;2.346;2023-07-02T10:19:18;101242.84;;;25.76;36.64
62600;BME280;48671;48.922;2.346;2023-07-02T10:21:44;101228.31;;;25.71;37.08
62600;BME280;48671;48.922;2.346;2023-07-02T10:24:16;101227.00;;;25.75;37.45
62600;BME280;48671;48.922;2.346;2023-07-02T10:26:55;101237.25;;;25.69;36.67
62600;BME280;48671;48.922;2.346;2023-07-02T10:29:23;101239.00;;;25.61;37.09
62600;BME280;48671;48.922;2.346;2023-07-02T10:31:50;101239.66;;;25.63;36.86
62600;BME280;48671;48.922;2.346;2023-07-02T10:34:16;101239.13;;;25.59;37.21
62600;BME280;48671;48.922;2.346;2023-07-02T10:36:55;101231.28;;;25.58;37.42
62600;BME280;48671;48.922;2.346;2023-07-02T10:39:20;101231.84;;;25.52;36.70
62600;BME280;48671;48.922;2.346;2023-07-02T10:41:46;101228.63;;;25.48;37.23
62600;BME280;48671;48.922;2.346;2023-07-02T10:44:11;101228.75;;;25.56;37.09
62600;BME280;48671;48.922;2.346;2023-07-02T10:46:44;101225.03;;;25.86;36.14
62600;BME280;48671;48.922;2.346;2023-07-02T10:49:09;101218.66;;;26.25;36.59
62600;BME280;48671;48.922;2.346;2023-07-02T10:51:36;101214.31;;;26.51;36.33
62600;BME280;48671;48.922;2.346;2023-07-02T10:54:02;101210.44;;;26.64;35.59
62600;BME280;48671;48.922;2.346;2023-07-02T10:56:29;101217.38;;;26.74;35.21
62600;BME280;48671;48.922;2.346;2023-07-02T10:58:55;101214.19;;;26.71;35.41
62600;BME280;48671;48.922;2.346;2023-07-02T11:01:28;101220.41;;;26.97;35.17
62600;BME280;48671;48.922;2.346;2023-07-02T11:04:02;101225.38;;;27.10;34.47
62600;BME280;48671;48.922;2.346;2023-07-02T11:06:29;101220.13;;;27.00;32.98
62600;BME280;48671;48.922;2.346;2023-07-02T11:08:55;101216.47;;;27.01;33.97
62600;BME280;48671;48.922;2.346;2023-07-02T11:11:22;101212.56;;;27.31;33.47
62600;BME280;48671;48.922;2.346;2023-07-02T11:13:49;101205.88;;;27.62;33.81
62600;BME280;48671;48.922;2.346;2023-07-02T11:16:24;101203.59;;;27.75;32.58
62600;BME280;48671;48.922;2.346;2023-07-02T11:19:06;101209.28;;;27.72;30.72
62600;BME280;48671;48.922;2.346;2023-07-02T11:21:35;101204.34;;;27.77;32.13
62600;BME280;48671;48.922;2.346;2023-07-02T11:24:06;101199.81;;;27.77;31.91
62600;BME280;48671;48.922;2.346;2023-07-02T11:26:40;101210.63;;;27.76;31.06
62600;BME280;48671;48.922;2.346;2023-07-02T11:29:12;101207.66;;;27.79;31.58
62600;BME280;48671;48.922;2.346;2023-07-02T11:31:43;101203.72;;;27.65;31.50
62600;BME280;48671;48.922;2.346;2023-07-02T11:34:19;101197.03;;;27.61;30.83
62600;BME280;48671;48.922;2.346;2023-07-02T11:36:45;101204.47;;;27.49;31.38
62600;BME280;48671;48.922;2.346;2023-07-02T11:39:11;101200.34;;;27.55;31.00
62600;BME280;48671;48.922;2.346;2023-07-02T11:41:44;101206.19;;;27.76;30.59
62600;BME280;48671;48.922;2.346;2023-07-02T11:44:09;101195.41;;;28.03;30.40
62600;BME280;48671;48.922;2.346;2023-07-02T11:46:35;101200.59;;;28.04;30.35
62600;BME280;48671;48.922;2.346;2023-07-02T11:49:02;101197.22;;;28.02;30.54
62600;BME280;48671;48.922;2.346;2023-07-02T11:51:28;101191.03;;;28.01;30.48
62600;BME280;48671;48.922;2.346;2023-07-02T11:53:53;101198.63;;;28.14;29.93
62600;BME280;48671;48.922;2.346;2023-07-02T11:56:18;101203.69;;;28.34;29.69
62600;BME280;48671;48.922;2.346;2023-07-02T11:58:44;101200.78;;;28.69;30.33
62600;BME280;48671;48.922;2.346;2023-07-02T12:01:09;101188.25;;;29.11;29.89
62600;BME280;48671;48.922;2.346;2023-07-02T12:03:35;101189.88;;;29.45;29.14
62600;BME280;48671;48.922;2.346;2023-07-02T12:06:00;101187.31;;;29.59;26.71
62600;BME280;48671;48.922;2.346;2023-07-02T12:08:26;101185.66;;;29.67;27.72
62600;BME280;48671;48.922;2.346;2023-07-02T12:10:51;101182.09;;;29.74;26.68
62600;BME280;48671;48.922;2.346;2023-07-02T12:13:16;101176.91;;;29.73;27.55
62600;BME280;48671;48.922;2.346;2023-07-02T12:15:42;101183.06;;;29.81;26.67
62600;BME280;48671;48.922;2.346;2023-07-02T12:18:09;101186.47;;;30.06;26.32
62600;BME280;48671;48.922;2.346;2023-07-02T12:20:34;101186.69;;;29.97;25.36
62600;BME280;48671;48.922;2.346;2023-07-02T12:23:00;101190.06;;;29.91;27.25
62600;BME280;48671;48.922;2.346;2023-07-02T12:25:25;101185.88;;;29.96;26.76
62600;BME280;48671;48.922;2.346;2023-07-02T12:27:50;101189.03;;;30.00;26.71
62600;BME280;48671;48.922;2.346;2023-07-02T12:30:16;101181.53;;;29.87;26.71
62600;BME280;48671;48.922;2.346;2023-07-02T12:32:42;101184.75;;;29.82;26.93
62600;BME280;48671;48.922;2.346;2023-07-02T12:35:08;101185.03;;;29.96;27.26
62600;BME280;48671;48.922;2.346;2023-07-02T12:37:33;101187.72;;;30.27;26.81
62600;BME280;48671;48.922;2.346;2023-07-02T12:39:59;101180.66;;;30.57;26.60
62600;BME280;48671;48.922;2.346;2023-07-02T12:42:24;101185.31;;;30.86;25.41
62600;BME280;48671;48.922;2.346;2023-07-02T12:44:49;101185.00;;;31.04;25.46
62600;BME280;48671;48.922;2.346;2023-07-02T12:47:15;101178.53;;;31.13;23.90
62600;BME280;48671;48.922;2.346;2023-07-02T12:49:40;101177.88;;;31.11;24.83